Time;durP1;ratioP1;P1;durP2;ratioP2;P2;SDS_P1;SDS_P2;PMS_P1;PMS_P2;Temp;Humidity;BMP_temperature;BMP_pressure;BME280_temperature;BME280_humidity;BME280_pressure;Samples;Min_cycle;Max_cycle;Signal;HPM_P1;HPM_P2
2023/05/10 00:01:42;;;;;;;;;;;;;;;14.93;62.36;97968.97;5024961;28;19920;-78
2023/05/10 00:04:07;;;;;;;;;;;;;;;14.98;62.13;97962.72;5045163;28;20697;-78
2023/05/10 00:06:32;;;;;;;;;;;;;;;15.02;62.09;97961.81;5026036;28;19990;-78
2023/05/10 00:08:58;;;;;;;;;;;;;;;15.07;62.09;97963.59;5025891;28;19936;-78
2023/05/10 00:11:23;;;;;;;;;;;;;;;15.07;62.06;97960.13;5041233;28;20031;-78
2023/05/10 00:13:48;;;;;;;;;;;;;;;15.05;62.46;97956.94;5046425;28;19925;-78
2023/05/10 00:16:14;;;;;;;;;;;;;;;15.11;62.41;97959.22;5023628;28;19939;-78
2023/05/10 00:18:39;;;;;;;;;;;;;;;15.03;62.43;97959.91;5044095;28;19924;-78
2023/05/10 00:21:05;;;;;;;;;;;;;;;15.06;62.05;97955.81;5042901;28;19921;-78
2023/05/10 00:23:30;;;;;;;;;;;;;;;15.11;61.94;97956.53;5027681;28;19921;-78
2023/05/10 00:25:55;;;;;;;;;;;;;;;15.12;61.55;97963.50;5039368;28;20393;-78
2023/05/10 00:28:21;;;;;;;;;;;;;;;15.09;62.06;97957.94;5046141;28;19932;-78
2023/05/10 00:30:46;;;;;;;;;;;;;;;14.88;62.33;97966.38;5007830;28;19921;-78
2023/05/10 00:33:12;;;;;;;;;;;;;;;14.94;62.21;97959.00;5042729;28;20671;-78
2023/05/10 00:35:37;;;;;;;;;;;;;;;14.98;61.40;97960.78;5038960;28;20023;-78
2023/05/10 00:38:03;;;;;;;;;;;;;;;15.02;61.20;97953.75;5028066;28;19920;-78
2023/05/10 00:40:28;;;;;;;;;;;;;;;15.03;61.15;97949.16;5027081;28;19920;-78
2023/05/10 00:42:53;;;;;;;;;;;;;;;15.02;61.00;97948.38;5044262;28;19929;-78
2023/05/10 00:45:19;;;;;;;;;;;;;;;15.07;61.14;97949.38;5032309;28;22009;-78
2023/05/10 00:47:44;;;;;;;;;;;;;;;15.05;61.00;97946.97;5009603;28;19928;-78
2023/05/10 00:50:10;;;;;;;;;;;;;;;15.05;61.06;97943.50;5026011;28;19917;-78
2023/05/10 00:52:35;;;;;;;;;;;;;;;15.03;61.08;97949.97;5028048;28;19955;-78
2023/05/10 00:55:01;;;;;;;;;;;;;;;15.02;61.11;97942.19;5043943;28;20308;-78
2023/05/10 00:57:26;;;;;;;;;;;;;;;15.08;61.00;97945.56;5025137;28;20074;-78
2023/05/10 00:59:52;;;;;;;;;;;;;;;15.07;61.40;97941.31;5028486;28;19959;-78
2023/05/10 01:02:17;;;;;;;;;;;;;;;15.08;61.35;97940.19;5044226;28;20392;-78
2023/05/10 01:04:43;;;;;;;;;;;;;;;15.07;60.89;97942.09;5043657;28;20291;-78
2023/05/10 01:07:08;;;;;;;;;;;;;;;15.03;61.44;97938.41;5037051;28;20332;-78
2023/05/10 01:09:33;;;;;;;;;;;;;;;14.91;61.51;97928.19;5039775;28;19916;-78
2023/05/10 01:11:59;;;;;;;;;;;;;;;14.94;61.14;97934.81;5041936;28;19917;-78
2023/05/10 01:14:26;;;;;;;;;;;;;;;14.93;61.21;97934.03;5042620;28;19924;-78
2023/05/10 01:16:53;;;;;;;;;;;;;;;14.97;60.87;97936.91;5038222;28;20684;-78
2023/05/10 01:19:29;;;;;;;;;;;;;;;14.96;61.28;97933.44;5024614;28;20376;-78
2023/05/10 01:22:00;;;;;;;;;;;;;;;14.90;61.74;97931.13;5041548;28;19929;-78
2023/05/10 01:24:25;;;;;;;;;;;;;;;14.91;61.47;97927.38;5036632;28;20332;-78
2023/05/10 01:27:03;;;;;;;;;;;;;;;14.95;61.68;97931.06;5044022;28;19917;-78
2023/05/10 01:29:46;;;;;;;;;;;;;;;14.90;61.42;97931.94;5043679;28;19927;-78
2023/05/10 01:32:16;;;;;;;;;;;;;;;14.91;61.34;97938.91;5042422;28;19917;-78
2023/05/10 01:34:45;;;;;;;;;;;;;;;14.91;61.95;97936.22;5045885;28;19917;-78
2023/05/10 01:37:13;;;;;;;;;;;;;;;14.87;61.80;97929.84;5042296;28;19928;-78
2023/05/10 01:39:44;;;;;;;;;;;;;;;14.81;62.41;97928.34;5044231;28;19921;-78
2023/05/10 01:42:10;;;;;;;;;;;;;;;14.90;61.94;97933.81;5027990;28;19921;-78
2023/05/10 01:44:42;;;;;;;;;;;;;;;14.85;61.95;97929.34;5041736;28;19924;-78
2023/05/10 01:47:12;;;;;;;;;;;;;;;14.84;62.23;97929.66;5042989;28;19979;-78
2023/05/10 01:49:43;;;;;;;;;;;;;;;14.79;62.40;97927.06;5025634;28;20015;-78
2023/05/10 01:52:10;;;;;;;;;;;;;;;14.79;63.21;97929.75;5025640;28;20303;-78
2023/05/10 01:54:38;;;;;;;;;;;;;;;14.78;63.11;97920.91;5042810;28;20003;-78
2023/05/10 01:57:05;;;;;;;;;;;;;;;14.75;62.90;97915.31;5025391;28;19924;-78
2023/05/10 01:59:36;;;;;;;;;;;;;;;14.73;63.12;97918.31;5038491;28;19920;-78
2023/05/10 02:02:01;;;;;;;;;;;;;;;14.83;63.10;97926.16;5043006;28;19928;-78
2023/05/10 02:04:28;;;;;;;;;;;;;;;14.70;63.67;97924.25;5004664;28;20292;-78
2023/05/10 02:06:53;;;;;;;;;;;;;;;14.68;63.74;97936.38;5025757;28;19928;-78
2023/05/10 02:09:20;;;;;;;;;;;;;;;14.68;63.51;97931.81;5024931;28;19921;-78
2023/05/10 02:11:47;;;;;;;;;;;;;;;14.73;63.80;97934.44;5036370;28;20381;-78
2023/05/10 02:14:14;;;;;;;;;;;;;;;14.69;63.52;97930.75;5041464;28;20430;-78
2023/05/10 02:16:40;;;;;;;;;;;;;;;14.75;63.67;97929.56;5043679;28;19920;-78
2023/05/10 02:19:06;;;;;;;;;;;;;;;14.77;63.57;97929.25;5030527;28;19928;-78
2023/05/10 02:21:33;;;;;;;;;;;;;;;14.72;63.89;97942.78;5008915;28;19928;-78
2023/05/10 02:23:59;;;;;;;;;;;;;;;14.73;63.75;97941.69;5021105;28;19959;-78
2023/05/10 02:26:25;;;;;;;;;;;;;;;14.65;64.30;97937.81;5021141;28;20446;-78
2023/05/10 02:28:52;;;;;;;;;;;;;;;14.66;64.86;97938.59;5021670;28;20032;-78
2023/05/10 02:31:17;;;;;;;;;;;;;;;14.59;65.16;97938.97;5026647;28;19925;-78
2023/05/10 02:33:44;;;;;;;;;;;;;;;14.57;65.63;97935.00;5040223;28;19982;-78
2023/05/10 02:36:10;;;;;;;;;;;;;;;14.52;65.98;97927.84;5025683;28;19925;-78
2023/05/10 02:38:36;;;;;;;;;;;;;;;14.52;66.48;97927.84;5020654;28;19978;-78
2023/05/10 02:41:01;;;;;;;;;;;;;;;14.56;66.98;97919.97;5027456;28;19929;-78
2023/05/10 02:43:28;;;;;;;;;;;;;;;14.53;67.23;97934.78;5022746;28;19975;-78
2023/05/10 02:45:53;;;;;;;;;;;;;;;14.47;67.68;97941.34;5002962;28;19931;-78
2023/05/10 02:48:19;;;;;;;;;;;;;;;14.49;68.31;97938.34;5036807;28;19925;-78
2023/05/10 02:50:44;;;;;;;;;;;;;;;14.45;68.92;97935.47;5007549;28;19920;-78
2023/05/10 02:53:11;;;;;;;;;;;;;;;14.39;68.95;97944.72;5022452;28;20357;-78
2023/05/10 02:55:38;;;;;;;;;;;;;;;14.35;69.59;97942.91;5045140;28;19917;-78
2023/05/10 02:58:03;;;;;;;;;;;;;;;14.38;69.41;97940.44;5037424;28;19929;-79
2023/05/10 03:00:29;;;;;;;;;;;;;;;14.32;70.00;97941.63;5026387;28;20430;-79
2023/05/10 03:02:54;;;;;;;;;;;;;;;14.19;70.59;97942.34;5027556;28;20007;-79
2023/05/10 03:05:20;;;;;;;;;;;;;;;14.30;70.36;97945.69;5049595;28;19917;-79
2023/05/10 03:07:45;;;;;;;;;;;;;;;14.26;70.34;97940.84;5043217;28;19917;-78
2023/05/10 03:10:11;;;;;;;;;;;;;;;14.24;70.94;97943.03;5013138;28;19928;-78
2023/05/10 03:12:55;;;;;;;;;;;;;;;14.26;70.41;97942.75;5043861;28;19925;-78
2023/05/10 03:15:26;;;;;;;;;;;;;;;14.21;70.49;97945.53;5027191;28;19925;-78
2023/05/10 03:17:55;;;;;;;;;;;;;;;14.24;70.85;97948.41;5047268;28;19930;-79
2023/05/10 03:20:24;;;;;;;;;;;;;;;14.23;71.27;97946.03;5048534;28;19916;-79
2023/05/10 03:22:51;;;;;;;;;;;;;;;14.16;71.49;97943.72;5045468;28;19936;-79
2023/05/10 03:25:18;;;;;;;;;;;;;;;14.16;71.84;97950.97;5038107;28;19963;-79
2023/05/10 03:27:43;;;;;;;;;;;;;;;14.16;72.10;97950.97;5015094;28;19921;-79
2023/05/10 03:30:10;;;;;;;;;;;;;;;14.22;72.56;97945.22;5031169;28;19917;-79
2023/05/10 03:32:35;;;;;;;;;;;;;;;14.22;72.58;97949.78;5045731;28;19974;-79
2023/05/10 03:35:05;;;;;;;;;;;;;;;14.11;72.80;97943.78;5047197;28;19929;-79
2023/05/10 03:37:31;;;;;;;;;;;;;;;14.17;73.37;97949.88;5046924;28;19923;-79
2023/05/10 03:39:56;;;;;;;;;;;;;;;14.15;73.63;97950.16;5009491;28;19936;-79
2023/05/10 03:42:21;;;;;;;;;;;;;;;14.15;73.47;97946.69;5030538;28;20019;-79
2023/05/10 03:44:48;;;;;;;;;;;;;;;14.15;74.07;97957.44;5029366;28;19931;-79
2023/05/10 03:47:13;;;;;;;;;;;;;;;14.07;74.65;97952.72;5046712;28;20470;-79
2023/05/10 03:49:38;;;;;;;;;;;;;;;14.03;74.75;97949.03;5027320;28;20604;-79
2023/05/10 03:52:05;;;;;;;;;;;;;;;14.09;75.15;97939.78;5046827;28;20261;-79
2023/05/10 03:54:30;;;;;;;;;;;;;;;14.09;75.28;97945.97;5014771;28;19963;-79
2023/05/10 03:56:55;;;;;;;;;;;;;;;14.15;75.23;97954.75;5042061;28;19959;-79
2023/05/10 03:59:20;;;;;;;;;;;;;;;14.11;75.54;97943.78;5026423;28;19968;-79
2023/05/10 04:01:46;;;;;;;;;;;;;;;14.10;75.66;97960.19;5025884;28;19966;-79
2023/05/10 04:04:11;;;;;;;;;;;;;;;14.14;75.35;97953.16;5046199;28;20201;-79
2023/05/10 04:06:37;;;;;;;;;;;;;;;14.16;76.13;97948.28;5043558;28;19935;-79
2023/05/10 04:09:04;;;;;;;;;;;;;;;14.20;76.28;97951.97;5029328;28;20388;-79
2023/05/10 04:11:29;;;;;;;;;;;;;;;13.84;76.79;97951.75;5041447;28;20015;-79
2023/05/10 04:13:54;;;;;;;;;;;;;;;13.88;78.05;97954.63;5026727;28;20499;-79
2023/05/10 04:16:20;;;;;;;;;;;;;;;14.11;77.08;97945.66;5025752;28;19928;-79
2023/05/10 04:18:45;;;;;;;;;;;;;;;14.21;76.58;97954.38;5041619;28;19925;-79
2023/05/10 04:21:13;;;;;;;;;;;;;;;14.16;77.17;97953.66;5022834;28;19953;-78
2023/05/10 04:23:38;;;;;;;;;;;;;;;14.15;77.38;97962.81;5021776;28;19921;-78
2023/05/10 04:26:04;;;;;;;;;;;;;;;14.13;77.95;97965.75;5040269;28;19928;-79
2023/05/10 04:28:29;;;;;;;;;;;;;;;14.06;78.08;97962.69;5027243;28;19928;-78
2023/05/10 04:31:00;;;;;;;;;;;;;;;14.03;78.80;97973.19;5033447;28;20015;-79
2023/05/10 04:33:25;;;;;;;;;;;;;;;13.95;79.27;97977.34;5025358;28;19917;-78
2023/05/10 04:35:50;;;;;;;;;;;;;;;13.53;81.33;97974.69;5040819;28;19917;-78
2023/05/10 04:38:17;;;;;;;;;;;;;;;13.82;80.22;97963.84;5025496;28;19940;-78
2023/05/10 04:40:42;;;;;;;;;;;;;;;13.66;81.21;97976.66;5028197;28;19936;-78
2023/05/10 04:43:07;;;;;;;;;;;;;;;13.64;81.86;97972.69;5049359;28;19929;-80
2023/05/10 04:45:32;;;;;;;;;;;;;;;13.61;82.02;97971.38;5012915;28;20296;-80
2023/05/10 04:47:58;;;;;;;;;;;;;;;13.83;81.37;97979.63;5026996;28;19921;-80
2023/05/10 04:50:23;;;;;;;;;;;;;;;14.00;80.60;97979.16;5024244;28;19932;-80
2023/05/10 04:52:48;;;;;;;;;;;;;;;13.96;81.16;97986.16;5027523;28;19929;-80
2023/05/10 04:55:13;;;;;;;;;;;;;;;13.41;83.14;97983.16;5040940;28;19925;-81
2023/05/10 04:57:39;;;;;;;;;;;;;;;13.54;83.76;97987.03;5032088;28;19927;-80
2023/05/10 05:00:04;;;;;;;;;;;;;;;13.70;82.72;97985.72;5045571;28;19928;-80
2023/05/10 05:02:30;;;;;;;;;;;;;;;13.74;82.27;97996.69;5026302;28;19921;-81
2023/05/10 05:04:57;;;;;;;;;;;;;;;13.46;84.54;97996.50;5027549;28;19929;-80
2023/05/10 05:07:22;;;;;;;;;;;;;;;13.43;85.11;98001.66;5025261;28;19925;-81
2023/05/10 05:09:47;;;;;;;;;;;;;;;14.00;81.92;98001.38;5029826;28;19920;-80
2023/05/10 05:12:13;;;;;;;;;;;;;;;14.08;81.52;98010.69;5028340;28;20691;-80
2023/05/10 05:14:39;;;;;;;;;;;;;;;14.16;81.11;98018.88;5047593;28;19917;-81
2023/05/10 05:17:04;;;;;;;;;;;;;;;13.95;82.49;98011.41;5041512;28;19929;-80
2023/05/10 05:19:30;;;;;;;;;;;;;;;14.00;82.08;98016.72;5012205;28;19967;-81
2023/05/10 05:21:56;;;;;;;;;;;;;;;14.09;81.94;98012.25;5052126;28;20356;-80
2023/05/10 05:24:21;;;;;;;;;;;;;;;14.18;81.40;98010.50;5015244;28;19977;-80
2023/05/10 05:26:47;;;;;;;;;;;;;;;14.14;81.83;98022.91;5026896;28;21030;-81
2023/05/10 05:29:12;;;;;;;;;;;;;;;14.16;81.74;98021.53;5050821;28;19951;-81
2023/05/10 05:31:37;;;;;;;;;;;;;;;13.77;83.81;98023.72;5027842;28;19917;-80
2023/05/10 05:34:02;;;;;;;;;;;;;;;14.07;82.22;98025.97;5026593;28;19974;-80
2023/05/10 05:36:28;;;;;;;;;;;;;;;14.15;81.69;98030.66;5028868;28;19920;-80
2023/05/10 05:38:53;;;;;;;;;;;;;;;13.98;83.18;98034.94;5014109;28;19921;-80
2023/05/10 05:41:18;;;;;;;;;;;;;;;14.12;82.43;98036.63;5025845;28;19925;-80
2023/05/10 05:43:43;;;;;;;;;;;;;;;14.14;82.72;98039.81;5026337;28;19932;-80
2023/05/10 05:46:08;;;;;;;;;;;;;;;14.20;82.04;98043.22;5048865;28;19920;-81
2023/05/10 05:48:34;;;;;;;;;;;;;;;14.16;82.21;98044.91;5012621;28;19927;-81
2023/05/10 05:50:59;;;;;;;;;;;;;;;14.22;82.49;98054.47;5016078;28;20284;-81
2023/05/10 05:53:24;;;;;;;;;;;;;;;14.28;82.14;98054.09;5028010;28;19929;-80
2023/05/10 05:55:57;;;;;;;;;;;;;;;14.05;83.63;98056.84;5031694;28;19925;-80
2023/05/10 05:58:23;;;;;;;;;;;;;;;14.22;82.35;98054.47;5031970;28;19916;-81
2023/05/10 06:00:48;;;;;;;;;;;;;;;14.21;82.54;98055.56;5041970;28;20453;-80
2023/05/10 06:03:14;;;;;;;;;;;;;;;14.08;83.06;98064.34;5029011;28;19924;-81
2023/05/10 06:05:39;;;;;;;;;;;;;;;14.07;83.88;98068.09;5030176;28;19920;-81
2023/05/10 06:08:05;;;;;;;;;;;;;;;13.96;84.56;98072.00;5047820;28;19944;-81
2023/05/10 06:10:30;;;;;;;;;;;;;;;13.88;85.07;98067.28;5029233;28;19939;-81
2023/05/10 06:12:55;;;;;;;;;;;;;;;14.11;84.03;98074.47;5035104;28;20013;-80
2023/05/10 06:15:21;;;;;;;;;;;;;;;14.25;83.26;98078.06;5030807;28;20004;-81
2023/05/10 06:17:48;;;;;;;;;;;;;;;14.32;82.91;98078.53;5047004;28;20376;-80
2023/05/10 06:20:14;;;;;;;;;;;;;;;14.24;83.05;98081.84;5022880;28;20300;-80
2023/05/10 06:22:39;;;;;;;;;;;;;;;14.29;83.08;98084.47;5029502;28;19933;-81
2023/05/10 06:25:05;;;;;;;;;;;;;;;14.30;82.47;98086.06;5028658;28;19929;-81
2023/05/10 06:27:30;;;;;;;;;;;;;;;14.35;82.84;98088.66;5048805;28;19927;-81
2023/05/10 06:29:55;;;;;;;;;;;;;;;14.17;84.95;98092.94;5028054;28;21404;-81
2023/05/10 06:32:21;;;;;;;;;;;;;;;14.40;82.13;98085.09;5030882;28;19938;-81
2023/05/10 06:34:46;;;;;;;;;;;;;;;14.25;83.58;98094.16;5025974;28;19979;-81
2023/05/10 06:37:11;;;;;;;;;;;;;;;14.35;82.47;98088.66;5024322;28;19982;-81
2023/05/10 06:39:37;;;;;;;;;;;;;;;14.44;82.27;98103.03;5031111;28;19921;-81
2023/05/10 06:42:02;;;;;;;;;;;;;;;14.42;82.80;98099.84;5033472;28;19935;-81
2023/05/10 06:44:27;;;;;;;;;;;;;;;14.38;82.72;98104.19;5032940;28;20019;-81
2023/05/10 06:46:55;;;;;;;;;;;;;;;14.30;83.33;98102.19;5016154;28;19982;-80
2023/05/10 06:49:20;;;;;;;;;;;;;;;14.18;84.03;98109.81;5033523;28;20305;-81
2023/05/10 06:51:45;;;;;;;;;;;;;;;14.30;83.19;98118.28;5033112;28;19929;-81
2023/05/10 06:54:10;;;;;;;;;;;;;;;14.07;84.62;98117.22;5032389;28;19921;-80
2023/05/10 06:56:36;;;;;;;;;;;;;;;14.09;84.73;98115.03;5034345;28;20011;-80
2023/05/10 06:59:01;;;;;;;;;;;;;;;14.15;84.09;98121.16;5051407;28;19936;-80
2023/05/10 07:01:26;;;;;;;;;;;;;;;14.20;83.71;98119.19;5034542;28;19920;-81
2023/05/10 07:03:51;;;;;;;;;;;;;;;14.24;83.66;98117.50;5030744;28;20443;-81
2023/05/10 07:06:17;;;;;;;;;;;;;;;14.25;83.32;98127.16;5034121;28;19974;-81
2023/05/10 07:08:42;;;;;;;;;;;;;;;14.09;83.91;98124.97;5012566;28;19929;-80
2023/05/10 07:11:08;;;;;;;;;;;;;;;13.90;85.38;98121.47;5052824;28;19920;-80
2023/05/10 07:13:34;;;;;;;;;;;;;;;13.81;85.99;98120.50;5034432;28;20384;-80
2023/05/10 07:16:00;;;;;;;;;;;;;;;14.03;84.51;98120.75;5032298;28;19965;-81
2023/05/10 07:18:25;;;;;;;;;;;;;;;14.06;84.39;98128.25;5030763;28;19958;-80
2023/05/10 07:20:51;;;;;;;;;;;;;;;14.00;84.69;98126.72;5032173;28;19963;-81
2023/05/10 07:23:17;;;;;;;;;;;;;;;13.92;85.24;98132.69;5032082;28;19920;-80
2023/05/10 07:25:44;;;;;;;;;;;;;;;13.94;84.86;98123.28;5049022;28;20599;-81
2023/05/10 07:28:10;;;;;;;;;;;;;;;14.00;85.15;98132.09;5051523;28;20012;-81
2023/05/10 07:30:35;;;;;;;;;;;;;;;13.90;85.55;98130.31;5047136;28;21973;-81
2023/05/10 07:33:01;;;;;;;;;;;;;;;13.91;84.65;98137.25;5048514;28;19929;-81
2023/05/10 07:35:26;;;;;;;;;;;;;;;13.81;85.51;98134.72;5023181;28;19967;-81
2023/05/10 07:37:51;;;;;;;;;;;;;;;13.94;84.91;98136.69;5037766;28;19924;-81
2023/05/10 07:40:17;;;;;;;;;;;;;;;14.07;84.63;98141.34;5044039;28;20435;-81
2023/05/10 07:42:42;;;;;;;;;;;;;;;14.23;83.64;98132.03;5032138;28;20433;-81
2023/05/10 07:45:08;;;;;;;;;;;;;;;14.26;83.32;98136.03;5051030;28;19924;-82
2023/05/10 07:47:33;;;;;;;;;;;;;;;14.22;83.67;98143.03;5026213;28;19921;-81
2023/05/10 07:49:58;;;;;;;;;;;;;;;14.25;84.39;98145.16;5015580;28;19927;-81
2023/05/10 07:52:24;;;;;;;;;;;;;;;14.23;83.86;98155.38;5016943;28;21615;-81
2023/05/10 07:54:49;;;;;;;;;;;;;;;14.24;83.52;98157.00;5050204;28;19974;-81
2023/05/10 07:57:17;;;;;;;;;;;;;;;14.27;83.85;98153.72;5015888;28;20391;-81
2023/05/10 07:59:42;;;;;;;;;;;;;;;14.46;82.11;98161.84;5030737;28;19929;-81
2023/05/10 08:02:07;;;;;;;;;;;;;;;14.25;83.41;98159.38;5050259;28;19979;-81
2023/05/10 08:04:33;;;;;;;;;;;;;;;14.45;82.03;98171.75;5044491;28;20027;-81
2023/05/10 08:06:58;;;;;;;;;;;;;;;14.45;82.73;98168.28;5033531;28;19931;-79
2023/05/10 08:09:23;;;;;;;;;;;;;;;14.51;81.92;98173.28;5030259;28;19925;-78
2023/05/10 08:11:49;;;;;;;;;;;;;;;14.44;82.84;98169.38;5034388;28;19955;-78
2023/05/10 08:14:14;;;;;;;;;;;;;;;14.64;81.46;98182.50;5024978;28;19929;-79
2023/05/10 08:16:39;;;;;;;;;;;;;;;14.60;81.81;98182.28;5032025;28;19995;-78
2023/05/10 08:19:05;;;;;;;;;;;;;;;14.51;82.00;98194.78;5032829;28;20292;-79
2023/05/10 08:21:31;;;;;;;;;;;;;;;14.40;82.79;98193.31;5031138;28;19931;-78
2023/05/10 08:23:56;;;;;;;;;;;;;;;14.54;83.20;98194.19;5052183;28;20031;-79
2023/05/10 08:26:21;;;;;;;;;;;;;;;14.70;80.09;98197.47;5013662;28;20329;-78
2023/05/10 08:28:46;;;;;;;;;;;;;;;14.74;80.63;98204.63;5012052;28;20410;-78
2023/05/10 08:31:15;;;;;;;;;;;;;;;14.74;81.54;98210.00;5031958;28;19929;-78
2023/05/10 08:33:40;;;;;;;;;;;;;;;14.82;80.65;98204.00;5031027;28;19923;-79
2023/05/10 08:36:06;;;;;;;;;;;;;;;14.64;81.39;98210.16;5015969;28;19920;-79
2023/05/10 08:38:31;;;;;;;;;;;;;;;14.73;81.00;98216.50;5049291;28;19921;-79
2023/05/10 08:40:56;;;;;;;;;;;;;;;14.87;80.24;98217.34;5033199;28;19921;-79
2023/05/10 08:43:24;;;;;;;;;;;;;;;14.82;79.79;98219.31;5049077;28;20016;-79
2023/05/10 08:45:51;;;;;;;;;;;;;;;14.79;80.65;98217.19;5030456;28;20036;-79
2023/05/10 08:48:17;;;;;;;;;;;;;;;14.86;79.48;98228.38;5041007;28;19987;-78
2023/05/10 08:50:42;;;;;;;;;;;;;;;14.96;79.59;98220.97;5031884;28;20398;-79
2023/05/10 08:53:12;;;;;;;;;;;;;;;15.01;78.90;98222.78;5049469;28;20272;-79
2023/05/10 08:55:38;;;;;;;;;;;;;;;15.13;78.67;98230.41;5031761;28;20078;-78
2023/05/10 08:58:07;;;;;;;;;;;;;;;15.21;78.40;98227.03;5032728;28;20003;-78
2023/05/10 09:00:32;;;;;;;;;;;;;;;15.30;77.42;98236.03;5043559;28;19928;-78
2023/05/10 09:02:58;;;;;;;;;;;;;;;15.31;78.61;98233.06;5040482;28;20397;-78
2023/05/10 09:05:24;;;;;;;;;;;;;;;15.38;77.82;98235.38;5048576;28;19925;-78
2023/05/10 09:07:49;;;;;;;;;;;;;;;15.51;77.60;98243.50;5047578;28;19944;-78
2023/05/10 09:10:15;;;;;;;;;;;;;;;15.51;78.40;98248.09;5051026;28;19967;-78
2023/05/10 09:12:40;;;;;;;;;;;;;;;15.60;77.57;98254.41;5047420;28;19952;-78
2023/05/10 09:15:06;;;;;;;;;;;;;;;15.68;77.97;98248.34;5046258;28;19924;-78
2023/05/10 09:17:32;;;;;;;;;;;;;;;15.50;78.61;98247.31;5030770;28;19925;-78
2023/05/10 09:20:00;;;;;;;;;;;;;;;15.74;77.11;98253.34;5048610;28;19928;-78
2023/05/10 09:22:26;;;;;;;;;;;;;;;15.67;77.23;98249.44;5025060;28;20353;-78
2023/05/10 09:25:05;;;;;;;;;;;;;;;15.65;77.10;98252.44;5029645;28;19967;-78
2023/05/10 09:27:30;;;;;;;;;;;;;;;15.67;76.69;98262.88;5030971;28;20044;-78
2023/05/10 09:29:55;;;;;;;;;;;;;;;15.60;77.02;98260.59;5027993;28;19920;-78
2023/05/10 09:32:20;;;;;;;;;;;;;;;15.63;76.76;98260.00;5016012;28;19927;-78
2023/05/10 09:34:49;;;;;;;;;;;;;;;15.61;76.80;98262.19;5046196;28;19932;-78
2023/05/10 09:37:14;;;;;;;;;;;;;;;15.66;76.67;98262.09;5049247;28;20399;-78
2023/05/10 09:39:41;;;;;;;;;;;;;;;15.62;76.87;98265.66;5025675;28;19960;-78
2023/05/10 09:42:07;;;;;;;;;;;;;;;15.70;76.18;98267.69;5025760;28;19927;-78
2023/05/10 09:44:33;;;;;;;;;;;;;;;15.68;75.57;98275.25;5014171;28;20575;-78
2023/05/10 09:46:58;;;;;;;;;;;;;;;15.70;75.15;98281.16;5030850;28;19960;-78
2023/05/10 09:49:24;;;;;;;;;;;;;;;15.72;76.40;98278.97;5015553;28;19936;-78
2023/05/10 09:52:02;;;;;;;;;;;;;;;15.85;75.98;98278.19;5025900;28;19924;-78
2023/05/10 09:54:27;;;;;;;;;;;;;;;15.90;75.25;98285.38;5029440;28;20033;-78
2023/05/10 09:56:52;;;;;;;;;;;;;;;15.94;74.76;98278.31;5030093;28;20024;-78
2023/05/10 09:59:18;;;;;;;;;;;;;;;16.00;75.46;98286.00;5046336;28;19920;-78
2023/05/10 10:01:49;;;;;;;;;;;;;;;16.16;74.74;98281.91;5047595;28;20411;-78
2023/05/10 10:04:14;;;;;;;;;;;;;;;16.31;73.87;98283.53;5045776;28;19929;-78
2023/05/10 10:06:40;;;;;;;;;;;;;;;16.34;73.49;98277.53;5023665;28;19935;-78
2023/05/10 10:09:06;;;;;;;;;;;;;;;16.44;73.53;98272.75;5044714;28;19921;-78
2023/05/10 10:11:32;;;;;;;;;;;;;;;16.51;73.30;98279.66;5029754;28;20302;-77
2023/05/10 10:13:58;;;;;;;;;;;;;;;16.58;73.27;98271.97;5022378;28;19927;-78
2023/05/10 10:16:24;;;;;;;;;;;;;;;16.80;72.67;98274.72;5028498;28;20019;-77
2023/05/10 10:18:50;;;;;;;;;;;;;;;16.87;71.87;98286.69;5029478;28;19921;-77
2023/05/10 10:21:15;;;;;;;;;;;;;;;16.80;72.12;98288.19;5029729;28;20342;-77
2023/05/10 10:23:40;;;;;;;;;;;;;;;16.92;71.55;98285.78;5046230;28;20836;-78
2023/05/10 10:26:06;;;;;;;;;;;;;;;17.04;70.82;98292.25;5045618;28;19917;-77
2023/05/10 10:28:44;;;;;;;;;;;;;;;17.09;70.55;98286.75;5031334;28;19917;-77
2023/05/10 10:31:21;;;;;;;;;;;;;;;16.81;70.90;98292.50;5029450;28;19966;-77
2023/05/10 10:33:55;;;;;;;;;;;;;;;16.95;70.72;98277.13;5049181;28;19999;-77
2023/05/10 10:36:20;;;;;;;;;;;;;;;17.14;69.85;98285.84;5042226;28;19928;-77
2023/05/10 10:38:45;;;;;;;;;;;;;;;17.22;69.55;98288.59;5014406;28;19920;-77
2023/05/10 10:41:26;;;;;;;;;;;;;;;17.09;70.17;98291.34;5031222;28;19947;-77
2023/05/10 10:44:11;;;;;;;;;;;;;;;16.83;71.11;98293.00;5048316;28;20468;-77
2023/05/10 10:46:56;;;;;;;;;;;;;;;16.91;70.93;98289.56;5045527;28;19921;-77
2023/05/10 10:49:22;;;;;;;;;;;;;;;16.94;70.76;98297.88;5046624;28;20453;-77
2023/05/10 10:52:06;;;;;;;;;;;;;;;16.65;71.64;98302.78;5047067;28;19925;-77
2023/05/10 10:54:32;;;;;;;;;;;;;;;16.62;72.12;98297.22;5047363;28;19970;-77
2023/05/10 10:57:10;;;;;;;;;;;;;;;16.43;71.87;98310.75;5030131;28;19971;-77
2023/05/10 10:59:36;;;;;;;;;;;;;;;16.40;72.53;98317.53;5031329;28;19956;-77
2023/05/10 11:02:02;;;;;;;;;;;;;;;16.35;72.83;98311.44;5047893;28;19963;-77
2023/05/10 11:04:27;;;;;;;;;;;;;;;16.33;73.45;98317.16;5048132;28;19920;-77
2023/05/10 11:07:12;;;;;;;;;;;;;;;16.36;74.32;98316.53;5008607;28;20408;-77
2023/05/10 11:09:41;;;;;;;;;;;;;;;16.52;73.03;98310.88;5048678;28;19916;-77
2023/05/10 11:12:08;;;;;;;;;;;;;;;16.64;72.41;98306.59;5030467;28;19916;-77
2023/05/10 11:14:33;;;;;;;;;;;;;;;16.76;72.31;98312.28;5029749;28;20545;-77
2023/05/10 11:16:58;;;;;;;;;;;;;;;16.96;72.01;98311.84;5028724;28;19970;-77
2023/05/10 11:19:27;;;;;;;;;;;;;;;17.10;71.28;98311.81;5047857;28;20281;-77
2023/05/10 11:22:04;;;;;;;;;;;;;;;17.24;71.34;98310.69;5033031;28;19932;-77
2023/05/10 11:24:29;;;;;;;;;;;;;;;17.30;71.10;98311.34;5041276;28;20043;-80
2023/05/10 11:26:56;;;;;;;;;;;;;;;17.52;70.14;98307.91;5028055;28;20020;-80
2023/05/10 11:29:21;;;;;;;;;;;;;;;17.34;71.16;98309.66;5047834;28;19960;-80
2023/05/10 11:31:47;;;;;;;;;;;;;;;17.56;69.51;98301.56;5030010;28;19952;-80
2023/05/10 11:34:33;;;;;;;;;;;;;;;17.76;69.43;98306.50;5049100;28;19925;-80
2023/05/10 11:36:59;;;;;;;;;;;;;;;17.68;69.28;98309.13;5047068;28;19971;-80
2023/05/10 11:39:28;;;;;;;;;;;;;;;17.80;67.77;98304.75;5031827;28;20839;-80
2023/05/10 11:41:54;;;;;;;;;;;;;;;18.06;68.48;98304.13;5029169;28;20285;-80
2023/05/10 11:44:20;;;;;;;;;;;;;;;18.20;67.29;98300.22;5030018;28;19975;-80
2023/05/10 11:46:45;;;;;;;;;;;;;;;18.30;67.11;98293.75;5031457;28;19920;-80
2023/05/10 11:49:11;;;;;;;;;;;;;;;18.49;66.53;98297.03;5045115;28;19925;-80
2023/05/10 11:51:36;;;;;;;;;;;;;;;18.60;66.30;98292.94;5030860;28;19928;-80
2023/05/10 11:54:05;;;;;;;;;;;;;;;18.65;64.99;98306.31;5020784;28;19931;-79
2023/05/10 11:56:32;;;;;;;;;;;;;;;18.88;64.61;98296.19;5042835;28;19920;-80
2023/05/10 11:58:57;;;;;;;;;;;;;;;19.01;64.35;98304.16;5024321;28;19967;-80
2023/05/10 12:01:24;;;;;;;;;;;;;;;19.15;64.43;98298.63;5041833;28;19929;-80
2023/05/10 12:03:50;;;;;;;;;;;;;;;19.09;64.27;98305.31;5029442;28;20611;-80
2023/05/10 12:06:40;;;;;;;;;;;;;;;18.90;64.63;98310.97;5047452;28;19927;-79
2023/05/10 12:09:07;;;;;;;;;;;;;;;18.57;64.62;98309.78;5045444;28;19921;-80
2023/05/10 12:11:32;;;;;;;;;;;;;;;18.33;65.85;98299.31;5043964;28;20853;-79
2023/05/10 12:13:57;;;;;;;;;;;;;;;18.94;65.05;98306.53;5044809;28;19921;-80
2023/05/10 12:16:23;;;;;;;;;;;;;;;19.05;65.33;98309.72;5011367;28;19929;-80
2023/05/10 12:18:52;;;;;;;;;;;;;;;18.87;65.55;98311.59;5033050;28;19917;-80
2023/05/10 12:21:19;;;;;;;;;;;;;;;18.96;65.29;98312.41;5047027;28;19931;-80
2023/05/10 12:23:45;;;;;;;;;;;;;;;18.78;66.16;98305.41;5024713;28;19932;-80
2023/05/10 12:26:10;;;;;;;;;;;;;;;18.52;65.20;98315.34;5049235;28;19920;-79
2023/05/10 12:28:36;;;;;;;;;;;;;;;18.67;64.80;98314.91;5047119;28;19925;-79
2023/05/10 12:31:02;;;;;;;;;;;;;;;17.80;66.26;98315.56;5025784;28;20446;-79
2023/05/10 12:33:34;;;;;;;;;;;;;;;18.35;65.54;98321.44;5029104;28;19960;-79
2023/05/10 12:36:00;;;;;;;;;;;;;;;18.10;64.91;98321.31;5046682;28;19927;-79
2023/05/10 12:38:32;;;;;;;;;;;;;;;18.16;64.06;98325.47;5028927;28;20411;-79
2023/05/10 12:40:59;;;;;;;;;;;;;;;18.77;65.86;98320.00;5050424;28;19931;-79
2023/05/10 12:43:24;;;;;;;;;;;;;;;18.40;62.64;98323.19;5047205;28;20071;-79
2023/05/10 12:45:50;;;;;;;;;;;;;;;17.73;62.94;98317.13;5042185;28;20027;-79